Flinterbrise — PHCA — position and weather

sailwx.info

Track history (hours):
 
Tides and Currents Weather Stations Pressure Air Temp Water Temp Dewpoint Dewpoint Depression Visibility Wind Speed Wind Dir Waves Ship Positions

Flinterbrise

Last reported at 2016-Jan-13 14:33 UTC. Time now 2016-Jun-30 17:52 UTC.
Position N 51°49' E 004°43'.
Warning: this ship's position is months out of date.

Length 82 m; draft 3.7 m.

Type: Cargo ship. MMSI: 246044000.

Date/timePositionNaut miles runAvg speedWind from/ knotsBaromVisibWave heightAir tempDewpointWater temp
2016-Jan-13 14:33N 51°49' E 004°43'0 0.0
2016-Jan-13 13:33N 51°49' E 004°43'0 0.0
2016-Jan-13 12:33N 51°49' E 004°43'0 0.0
2016-Jan-13 11:33N 51°49' E 004°43'1 1.3
2016-Jan-13 10:34N 51°49' E 004°41'4 4.3
2016-Jan-13 09:33N 51°49' E 004°34'5 4.6
2016-Jan-13 08:33N 51°50' E 004°27'5 5.0
2016-Jan-13 07:33N 51°52' E 004°20'7 7.5
2016-Jan-13 06:33N 51°57' E 004°11'9 8.9
2016-Jan-13 05:33N 51°60' E 003°57'56 6.8
2016-Jan-12 21:20N 51°26' E 002°46'4 5.3
2016-Jan-12 20:33N 51°22' E 002°47'8 7.9
2016-Jan-12 19:33N 51°22' E 002°60'9 8.6
2016-Jan-12 18:33N 51°20' E 003°13'0 0.4
2016-Jan-12 17:33N 51°20' E 003°13'5 4.9
2016-Jan-12 16:33N 51°15' E 003°13'1 0.6
2016-Jan-12 14:33N 51°14' E 003°14'0 0.0
2016-Jan-12 13:33N 51°14' E 003°14'0 0.0
2016-Jan-12 12:24N 51°14' E 003°14'0 0.0
2016-Jan-12 11:30N 51°14' E 003°14'0 0.0
2016-Jan-12 10:33N 51°14' E 003°14'0 0.0
2016-Jan-12 09:21N 51°14' E 003°14'0 0.0
2016-Jan-12 08:33N 51°14' E 003°14'0 0.0
2016-Jan-12 07:33N 51°14' E 003°14'0 0.0
2016-Jan-12 06:30N 51°14' E 003°14'0 0.0
2016-Jan-12 05:30N 51°14' E 003°14'0 0.0
2016-Jan-12 04:33N 51°14' E 003°14'0 0.0
2016-Jan-12 03:24N 51°14' E 003°14'0 0.0
2016-Jan-12 02:33N 51°14' E 003°14'0 0.0
2016-Jan-12 01:33N 51°14' E 003°14'0 0.0
2016-Jan-12 00:33N 51°14' E 003°14'0 0.0
2016-Jan-11 23:30N 51°14' E 003°14'0 0.0
2016-Jan-11 22:33N 51°14' E 003°14'0 0.0
2016-Jan-11 21:33N 51°14' E 003°14'0 0.0
2016-Jan-11 14:30N 51°14' E 003°14'2 0.1
2016-Jan-10 22:29N 51°16' E 003°13'3 3.3
2016-Jan-10 21:28N 51°19' E 003°13'1 1.3
2016-Jan-10 20:20N 51°21' E 003°13'7 7.9
2016-Jan-10 19:27N 51°22' E 003°01'8 9.4
2016-Jan-10 18:33N 51°21' E 002°48'9 9.0
2016-Jan-10 17:33N 51°22' E 002°34'1110.7
2016-Jan-10 16:33N 51°19' E 002°17'10 9.9
2016-Jan-10 15:33N 51°22' E 002°02'6 6.4
2016-Jan-10 14:33N 51°29' E 002°03'8 7.7
2016-Jan-10 13:32N 51°35' E 002°10'175 6.7
2016-Jan-09 11:33N 53°60' E 004°54'8 8.1
2016-Jan-09 10:33N 54°07' E 005°00'1211.6
2016-Jan-09 09:31N 54°17' E 005°11'282 8.3
2016-Jan-07 23:28N 57°41' E 011°00'1010.7
2016-Jan-07 22:33N 57°34' E 011°14'1110.8
2016-Jan-07 21:33N 57°26' E 011°27'1110.9
2016-Jan-07 20:33N 57°16' E 011°34'8010.0
2016-Jan-07 12:33N 56°04' E 012°38'1010.5
2016-Jan-07 11:34N 55°54' E 012°44'10 9.7
2016-Jan-07 10:33N 55°44' E 012°41'1010.1
2016-Jan-07 09:33N 55°34' E 012°42'11 9.6
2016-Jan-07 08:28N 55°24' E 012°42'9 8.0
2016-Jan-07 07:22N 55°17' E 012°50'11 9.6
2016-Jan-07 06:17N 55°16' E 013°08'26 9.5
2016-Jan-07 03:33N 55°14' E 013°54'9 9.2
2016-Jan-07 02:33N 55°14' E 014°10'8 8.4
2016-Jan-07 01:33N 55°18' E 014°22'9 9.5
2016-Jan-07 00:33N 55°26' E 014°33'10 9.5
2016-Jan-06 23:33N 55°29' E 014°49'10 9.5
2016-Jan-06 22:34N 55°32' E 015°05'  
Track history (hours):
 
Tides and Currents Weather Stations Pressure Air Temp Water Temp Dewpoint Dewpoint Depression Visibility Wind Speed Wind Dir Waves Ship Positions

Flinterbrise

Last reported at 2016-Jan-13 14:33 UTC. Time now 2016-Jun-30 17:52 UTC.
Position N 51°49' E 004°43'.
Warning: this ship's position is months out of date.

Length 82 m; draft 3.7 m.

Type: Cargo ship. MMSI: 246044000.

Date/timePositionNaut miles runAvg speedWind from/ knotsBaromVisibWave heightAir tempDewpointWater temp
2016-Jan-13 14:33N 51°49' E 004°43'0 0.0
2016-Jan-13 13:33N 51°49' E 004°43'0 0.0
2016-Jan-13 12:33N 51°49' E 004°43'0 0.0
2016-Jan-13 11:33N 51°49' E 004°43'1 1.3
2016-Jan-13 10:34N 51°49' E 004°41'4 4.3
2016-Jan-13 09:33N 51°49' E 004°34'5 4.6
2016-Jan-13 08:33N 51°50' E 004°27'5 5.0
2016-Jan-13 07:33N 51°52' E 004°20'7 7.5
2016-Jan-13 06:33N 51°57' E 004°11'9 8.9
2016-Jan-13 05:33N 51°60' E 003°57'56 6.8
2016-Jan-12 21:20N 51°26' E 002°46'4 5.3
2016-Jan-12 20:33N 51°22' E 002°47'8 7.9
2016-Jan-12 19:33N 51°22' E 002°60'9 8.6
2016-Jan-12 18:33N 51°20' E 003°13'0 0.4
2016-Jan-12 17:33N 51°20' E 003°13'5 4.9
2016-Jan-12 16:33N 51°15' E 003°13'1 0.6
2016-Jan-12 14:33N 51°14' E 003°14'0 0.0
2016-Jan-12 13:33N 51°14' E 003°14'0 0.0
2016-Jan-12 12:24N 51°14' E 003°14'0 0.0
2016-Jan-12 11:30N 51°14' E 003°14'0 0.0
2016-Jan-12 10:33N 51°14' E 003°14'0 0.0
2016-Jan-12 09:21N 51°14' E 003°14'0 0.0
2016-Jan-12 08:33N 51°14' E 003°14'0 0.0
2016-Jan-12 07:33N 51°14' E 003°14'0 0.0
2016-Jan-12 06:30N 51°14' E 003°14'0 0.0
2016-Jan-12 05:30N 51°14' E 003°14'0 0.0
2016-Jan-12 04:33N 51°14' E 003°14'0 0.0
2016-Jan-12 03:24N 51°14' E 003°14'0 0.0
2016-Jan-12 02:33N 51°14' E 003°14'0 0.0
2016-Jan-12 01:33N 51°14' E 003°14'0 0.0
2016-Jan-12 00:33N 51°14' E 003°14'0 0.0
2016-Jan-11 23:30N 51°14' E 003°14'0 0.0
2016-Jan-11 22:33N 51°14' E 003°14'0 0.0
2016-Jan-11 21:33N 51°14' E 003°14'0 0.0
2016-Jan-11 14:30N 51°14' E 003°14'2 0.1
2016-Jan-10 22:29N 51°16' E 003°13'3 3.3
2016-Jan-10 21:28N 51°19' E 003°13'1 1.3
2016-Jan-10 20:20N 51°21' E 003°13'7 7.9
2016-Jan-10 19:27N 51°22' E 003°01'8 9.4
2016-Jan-10 18:33N 51°21' E 002°48'9 9.0
2016-Jan-10 17:33N 51°22' E 002°34'1110.7
2016-Jan-10 16:33N 51°19' E 002°17'10 9.9
2016-Jan-10 15:33N 51°22' E 002°02'6 6.4
2016-Jan-10 14:33N 51°29' E 002°03'8 7.7
2016-Jan-10 13:32N 51°35' E 002°10'175 6.7
2016-Jan-09 11:33N 53°60' E 004°54'8 8.1
2016-Jan-09 10:33N 54°07' E 005°00'1211.6
2016-Jan-09 09:31N 54°17' E 005°11'282 8.3
2016-Jan-07 23:28N 57°41' E 011°00'1010.7
2016-Jan-07 22:33N 57°34' E 011°14'1110.8
2016-Jan-07 21:33N 57°26' E 011°27'1110.9
2016-Jan-07 20:33N 57°16' E 011°34'8010.0
2016-Jan-07 12:33N 56°04' E 012°38'1010.5
2016-Jan-07 11:34N 55°54' E 012°44'10 9.7
2016-Jan-07 10:33N 55°44' E 012°41'1010.1
2016-Jan-07 09:33N 55°34' E 012°42'11 9.6
2016-Jan-07 08:28N 55°24' E 012°42'9 8.0
2016-Jan-07 07:22N 55°17' E 012°50'11 9.6
2016-Jan-07 06:17N 55°16' E 013°08'26 9.5
2016-Jan-07 03:33N 55°14' E 013°54'9 9.2
2016-Jan-07 02:33N 55°14' E 014°10'8 8.4
2016-Jan-07 01:33N 55°18' E 014°22'9 9.5
2016-Jan-07 00:33N 55°26' E 014°33'10 9.5
2016-Jan-06 23:33N 55°29' E 014°49'10 9.5
2016-Jan-06 22:34N 55°32' E 015°05'  

Dump ship's entire track history